createdAt,value
2023-02-11T00:00:32.804Z,7.20
2023-02-11T00:01:32.836Z,7.18
2023-02-11T00:02:33.008Z,7.19
2023-02-11T00:03:32.935Z,7.20
2023-02-11T00:04:33.172Z,7.23
2023-02-11T00:05:32.765Z,7.23
2023-02-11T00:06:32.761Z,7.19
2023-02-11T00:07:32.802Z,7.15
2023-02-11T00:09:54.677Z,7.02
2023-02-11T00:12:27.339Z,6.94
2023-02-11T00:14:48.644Z,6.81
2023-02-11T00:37:42.488Z,6.44
2023-02-11T00:38:42.343Z,6.45
2023-02-11T01:07:55.657Z,6.05
2023-02-11T01:08:55.663Z,6.10
2023-02-11T01:09:55.742Z,6.10
2023-02-11T01:10:55.546Z,6.16
2023-02-11T01:11:54.517Z,6.16
2023-02-11T01:12:54.754Z,6.16
2023-02-11T01:13:54.755Z,6.17
2023-02-11T01:14:55.787Z,6.17
2023-02-11T01:15:55.258Z,6.23
2023-02-11T01:16:54.735Z,6.27
2023-02-11T01:17:54.715Z,6.30
2023-02-11T01:18:54.602Z,6.33
2023-02-11T01:21:15.196Z,6.34
2023-02-11T01:31:02.757Z,6.37
2023-02-11T01:32:02.081Z,6.38
2023-02-11T01:33:02.002Z,6.36
2023-02-11T01:34:02.111Z,6.38
2023-02-11T01:35:02.764Z,6.43
2023-02-11T01:36:02.095Z,6.43
2023-02-11T01:37:01.906Z,6.37
2023-02-11T01:38:01.933Z,6.37
2023-02-11T01:39:01.928Z,6.41
2023-02-11T01:40:01.950Z,6.37
2023-02-11T01:41:01.950Z,6.33
2023-02-11T01:42:01.948Z,6.33
2023-02-11T01:44:01.850Z,6.37
2023-02-11T01:52:33.398Z,6.33
2023-02-11T01:53:33.221Z,6.37
2023-02-11T01:54:32.860Z,6.37
2023-02-11T01:55:32.149Z,6.38
2023-02-11T01:57:52.664Z,6.33
2023-02-11T01:58:52.299Z,6.33
2023-02-11T01:59:52.567Z,6.34
2023-02-11T02:00:52.142Z,6.33
2023-02-11T02:01:52.256Z,6.31
2023-02-11T02:02:52.116Z,6.26
2023-02-11T02:03:52.222Z,6.28
2023-02-11T02:04:52.113Z,6.27
2023-02-11T02:05:52.523Z,6.26
2023-02-11T02:06:52.145Z,6.24
2023-02-11T02:07:52.082Z,6.23
2023-02-11T02:08:52.103Z,6.21
2023-02-11T04:02:36.237Z,5.69
2023-02-11T04:07:30.533Z,5.65
2023-02-11T04:11:22.354Z,5.72
2023-02-11T04:12:37.678Z,5.76
2023-02-11T04:18:43.706Z,5.63
2023-02-11T04:19:43.031Z,5.63
2023-02-11T04:20:43.166Z,5.61
2023-02-11T04:21:43.264Z,5.65
2023-02-11T04:22:43.182Z,5.65
2023-02-11T04:27:11.022Z,5.63
2023-02-11T04:29:36.609Z,5.48
2023-02-11T04:34:25.147Z,5.48
2023-02-11T04:38:01.984Z,5.44
2023-02-11T04:39:01.662Z,5.46
2023-02-11T04:40:01.744Z,5.51
2023-02-11T04:42:22.207Z,5.58
2023-02-11T04:43:22.828Z,5.56
2023-02-11T04:45:51.261Z,5.66
2023-02-11T04:48:05.269Z,5.61
2023-02-11T04:55:57.514Z,5.53
2023-02-11T04:56:55.249Z,5.48
2023-02-11T04:59:10.719Z,5.39
2023-02-11T05:00:10.643Z,5.41
2023-02-11T05:01:11.371Z,5.44
2023-02-11T05:02:10.468Z,5.45
2023-02-11T05:03:10.570Z,5.46
2023-02-11T05:04:10.669Z,5.42
2023-02-11T05:05:10.438Z,5.46
2023-02-11T05:06:10.469Z,5.41
2023-02-11T05:07:10.471Z,5.44
2023-02-11T05:08:10.467Z,5.49
2023-02-11T05:09:10.461Z,5.52
2023-02-11T05:10:10.541Z,5.51
2023-02-11T05:11:11.492Z,5.53
2023-02-11T05:12:26.266Z,5.52
2023-02-11T05:13:10.485Z,5.46
2023-02-11T05:14:10.436Z,5.49
2023-02-11T05:15:10.489Z,5.46
2023-02-11T05:16:11.002Z,5.42
2023-02-11T05:17:10.603Z,5.44
2023-02-11T05:18:10.397Z,5.42
2023-02-11T05:19:10.414Z,5.45
2023-02-11T05:20:10.418Z,5.44
2023-02-11T05:21:10.414Z,5.42
2023-02-11T05:22:10.355Z,5.48
2023-02-11T05:23:10.339Z,5.48
2023-02-11T05:24:10.506Z,5.48
2023-02-11T05:25:10.336Z,5.46
2023-02-11T05:26:10.339Z,5.48
2023-02-11T05:27:10.363Z,5.41
2023-02-11T05:28:10.330Z,5.46
2023-02-11T05:29:10.306Z,5.44
2023-02-11T05:30:10.286Z,5.39
2023-02-11T05:31:10.396Z,5.44
2023-02-11T05:32:10.295Z,5.45
2023-02-11T05:33:10.373Z,5.46
2023-02-11T05:34:10.287Z,5.48
2023-02-11T05:35:10.302Z,5.46
2023-02-11T05:36:10.243Z,5.42
2023-02-11T05:37:10.271Z,5.39
2023-02-11T05:38:10.268Z,5.39
2023-02-11T05:39:10.263Z,5.42
2023-02-11T05:40:10.254Z,5.41
2023-02-11T05:41:10.362Z,5.49
2023-02-11T05:42:10.392Z,5.46
2023-02-11T05:43:12.390Z,5.55
2023-02-11T05:44:13.007Z,5.51
2023-02-11T05:45:13.027Z,5.52
2023-02-11T05:49:01.712Z,5.58
2023-02-11T05:53:00.473Z,5.51
2023-02-11T06:01:10.453Z,5.51
2023-02-11T06:10:10.374Z,5.44
2023-02-11T06:19:10.882Z,5.58
2023-02-11T06:20:10.758Z,5.62
2023-02-11T06:21:10.684Z,5.62
2023-02-11T06:22:10.685Z,5.65
2023-02-11T06:23:10.612Z,5.70
2023-02-11T06:24:10.560Z,5.73
2023-02-11T06:25:10.572Z,5.73
2023-02-11T06:26:10.584Z,5.73
2023-02-11T06:27:10.583Z,5.79
2023-02-11T06:28:10.702Z,5.70
2023-02-11T06:29:10.529Z,5.67
2023-02-11T06:30:10.522Z,5.69
2023-02-11T06:31:10.680Z,5.76
2023-02-11T06:32:28.182Z,5.76
2023-02-11T06:33:11.558Z,5.80
2023-02-11T06:34:10.530Z,5.83
2023-02-11T06:35:12.159Z,5.79
2023-02-11T06:36:10.506Z,5.80
2023-02-11T06:37:10.555Z,5.86
2023-02-11T06:38:10.535Z,5.89
2023-02-11T06:39:10.515Z,5.89
2023-02-11T06:40:10.497Z,5.85
2023-02-11T06:41:10.463Z,5.88
2023-02-11T06:42:10.491Z,5.90
2023-02-11T06:43:10.491Z,5.86
2023-02-11T06:44:10.508Z,5.92
2023-02-11T06:45:10.453Z,5.90
2023-02-11T06:46:10.500Z,5.92
2023-02-11T06:47:10.458Z,5.92
2023-02-11T06:48:10.508Z,5.93
2023-02-11T06:49:10.467Z,5.89
2023-02-11T06:50:10.566Z,5.88
2023-02-11T06:51:10.558Z,5.96
2023-02-11T06:52:10.559Z,5.96
2023-02-11T06:53:10.546Z,5.95
2023-02-11T06:54:10.606Z,5.99
2023-02-11T06:55:10.680Z,5.97
2023-02-11T06:56:10.698Z,6.00
2023-02-11T06:57:10.799Z,5.99
2023-02-11T06:58:10.834Z,5.95
2023-02-11T06:59:10.885Z,5.96
2023-02-11T07:00:10.925Z,5.99
2023-02-11T07:01:10.986Z,5.86
2023-02-11T07:02:11.143Z,5.90
2023-02-11T07:03:11.224Z,5.89
2023-02-11T07:04:11.221Z,5.76
2023-02-11T07:05:11.174Z,5.82
2023-02-11T07:06:11.212Z,5.85
2023-02-11T07:07:11.343Z,5.89
2023-02-11T07:08:11.449Z,5.89
2023-02-11T07:09:11.444Z,5.96
2023-02-11T07:10:11.516Z,5.97
2023-02-11T07:11:11.649Z,6.00
2023-02-11T07:12:11.633Z,5.97
2023-02-11T07:13:11.745Z,6.06
2023-02-11T07:14:11.865Z,6.13
2023-02-11T07:15:11.645Z,6.20
2023-02-11T07:16:11.882Z,6.24
2023-02-11T07:36:12.629Z,8.34
2023-02-11T07:41:12.619Z,8.21
2023-02-11T07:42:12.708Z,8.12
2023-02-11T07:44:12.664Z,7.97
2023-02-11T07:45:12.627Z,7.86
2023-02-11T07:46:12.703Z,7.80
2023-02-11T07:47:12.757Z,7.74
2023-02-11T07:48:12.720Z,7.70
2023-02-11T07:49:12.727Z,7.63
2023-02-11T07:50:12.744Z,7.57
2023-02-11T07:51:12.737Z,7.50
2023-02-11T07:52:13.305Z,7.46
2023-02-11T07:53:12.854Z,7.45
2023-02-11T07:54:12.773Z,7.47
2023-02-11T07:55:12.805Z,7.52
2023-02-11T07:56:12.802Z,7.50
2023-02-11T07:57:12.800Z,7.47
2023-02-11T07:58:12.800Z,7.52
2023-02-11T07:59:12.802Z,7.50
2023-02-11T08:00:13.355Z,7.49
2023-02-11T08:01:12.843Z,7.43
2023-02-11T08:02:12.873Z,7.42
2023-02-11T08:03:12.825Z,7.43
2023-02-11T08:04:12.868Z,7.50
2023-02-11T08:05:12.839Z,7.53
2023-02-11T08:06:12.876Z,7.54
2023-02-11T08:07:12.852Z,7.56
2023-02-11T08:08:12.860Z,7.57
2023-02-11T08:09:12.897Z,7.62
2023-02-11T08:10:13.004Z,7.66
2023-02-11T08:11:12.874Z,7.70
2023-02-11T08:12:13.292Z,7.76
2023-02-11T08:13:13.018Z,7.77
2023-02-11T08:14:13.095Z,7.77
2023-02-11T08:15:13.095Z,7.78
2023-02-11T08:16:13.780Z,7.76
2023-02-11T09:14:07.811Z,8.27
2023-02-11T09:15:07.607Z,8.29
2023-02-11T09:16:07.558Z,8.34
2023-02-11T09:17:07.636Z,8.41
2023-02-11T09:18:07.567Z,8.42
2023-02-11T09:19:07.581Z,8.49
2023-02-11T09:20:10.637Z,8.49
2023-02-11T09:21:07.576Z,8.56
2023-02-11T09:22:07.518Z,8.45
2023-02-11T09:23:07.515Z,8.48
2023-02-11T09:24:07.545Z,8.51
2023-02-11T09:25:07.497Z,8.56
2023-02-11T09:26:09.193Z,8.62
2023-02-11T09:27:07.545Z,8.66
2023-02-11T09:33:13.133Z,8.73
2023-02-11T09:50:53.452Z,8.62
2023-02-11T09:51:53.730Z,8.52
2023-02-11T09:52:52.289Z,8.53
2023-02-11T09:53:51.812Z,8.62
2023-02-11T09:54:51.974Z,8.69
2023-02-11T09:57:26.442Z,8.69
2023-02-11T09:58:12.756Z,8.75
2023-02-11T09:59:12.275Z,8.76
2023-02-11T10:00:11.668Z,8.80
2023-02-11T10:01:11.734Z,8.68
2023-02-11T10:02:11.835Z,8.73
2023-02-11T10:03:11.832Z,8.60
2023-02-11T10:04:11.998Z,8.65
2023-02-11T10:05:12.043Z,8.73
2023-02-11T10:06:11.996Z,8.72
2023-02-11T10:07:12.270Z,8.83
2023-02-11T10:08:12.007Z,8.94
2023-02-11T10:09:12.076Z,9.03
2023-02-11T10:10:12.250Z,9.09
2023-02-11T10:11:22.697Z,9.20
2023-02-11T10:12:13.217Z,9.30
2023-02-11T10:13:13.298Z,9.37
2023-02-11T10:14:12.991Z,9.44
2023-02-11T10:15:11.999Z,9.57
2023-02-11T10:16:12.137Z,9.59
2023-02-11T10:17:12.013Z,9.68
2023-02-11T10:18:12.009Z,9.74
2023-02-11T10:19:11.957Z,9.78
2023-02-11T10:20:12.047Z,9.86
2023-02-11T10:21:12.214Z,9.86
2023-02-11T10:22:11.972Z,9.96
2023-02-11T10:23:12.012Z,10.35
2023-02-11T10:24:12.007Z,10.89
2023-02-11T10:25:12.009Z,11.00
2023-02-11T10:26:12.034Z,11.14
2023-02-11T10:27:12.052Z,11.35
2023-02-11T10:28:12.219Z,11.54
2023-02-11T10:29:12.101Z,11.65
2023-02-11T10:30:12.207Z,11.83
2023-02-11T10:31:12.312Z,11.99
2023-02-11T10:32:12.305Z,12.10
2023-02-11T10:33:12.339Z,12.07
2023-02-11T10:34:12.493Z,12.06
2023-02-11T10:35:12.420Z,12.03
2023-02-11T10:36:12.556Z,12.00
2023-02-11T10:37:12.601Z,12.00
2023-02-11T10:38:12.538Z,11.96
2023-02-11T10:39:12.588Z,11.83
2023-02-11T10:40:12.727Z,11.79
2023-02-11T10:41:13.759Z,11.57
2023-02-11T10:51:14.634Z,11.51
2023-02-11T10:52:13.519Z,11.45
2023-02-11T10:53:13.214Z,11.51
2023-02-11T10:54:13.888Z,11.52
2023-02-11T10:55:13.698Z,11.51
2023-02-11T10:56:13.824Z,11.51
2023-02-11T10:57:13.996Z,11.48
2023-02-11T10:58:13.663Z,11.39
2023-02-11T10:59:13.700Z,11.45
2023-02-11T11:00:13.696Z,11.48
2023-02-11T11:01:24.016Z,11.55
2023-02-11T11:02:14.783Z,11.57
2023-02-11T11:03:13.642Z,11.55
2023-02-11T11:04:13.801Z,11.64
2023-02-11T11:05:13.688Z,11.68
2023-02-11T11:06:13.880Z,11.72
2023-02-11T11:07:13.652Z,11.71
2023-02-11T11:08:13.660Z,11.71
2023-02-11T11:09:13.687Z,11.75
2023-02-11T11:10:13.561Z,11.78
2023-02-11T11:11:15.017Z,11.81
2023-02-11T11:12:13.954Z,11.86
2023-02-11T11:13:13.606Z,11.90
2023-02-11T11:14:13.536Z,11.90
2023-02-11T11:15:13.964Z,11.92
2023-02-11T11:16:13.779Z,11.95
2023-02-11T11:17:13.558Z,11.97
2023-02-11T13:07:59.020Z,13.19
2023-02-11T13:12:58.665Z,13.11
2023-02-11T13:15:58.677Z,13.17
2023-02-11T13:17:58.512Z,13.21
2023-02-11T13:18:58.803Z,13.17
2023-02-11T13:19:58.688Z,13.08
2023-02-11T13:20:58.519Z,13.01
2023-02-11T13:21:58.524Z,13.02
2023-02-11T13:22:58.532Z,13.02
2023-02-11T13:23:58.930Z,13.04
2023-02-11T13:24:58.520Z,13.08
2023-02-11T13:25:58.888Z,13.09
2023-02-11T13:26:58.729Z,13.14
2023-02-11T13:27:58.812Z,13.18
2023-02-11T13:28:58.774Z,13.19
2023-02-11T13:29:58.904Z,13.21
2023-02-11T13:30:59.026Z,13.23
2023-02-11T13:31:59.072Z,13.28
2023-02-11T13:32:59.110Z,13.26
2023-02-11T13:34:59.168Z,13.23
2023-02-11T13:35:59.104Z,13.22
2023-02-11T13:36:58.883Z,13.26
2023-02-11T13:37:59.059Z,13.26
2023-02-11T13:38:58.935Z,13.31
2023-02-11T13:39:59.140Z,13.28
2023-02-11T13:40:59.038Z,13.37
2023-02-11T13:43:19.470Z,13.19
2023-02-11T14:11:58.666Z,13.56
2023-02-11T14:12:58.357Z,13.59
2023-02-11T14:13:58.371Z,13.58
2023-02-11T14:14:59.245Z,13.63
2023-02-11T14:15:58.297Z,13.66
2023-02-11T14:39:24.822Z,13.62
2023-02-11T15:29:11.546Z,13.32
2023-02-11T15:31:34.579Z,13.17
2023-02-11T15:32:31.154Z,13.17
2023-02-11T15:33:30.806Z,13.17
2023-02-11T15:34:30.906Z,13.09
2023-02-11T15:35:30.787Z,13.09
2023-02-11T15:36:30.812Z,13.12
2023-02-11T15:37:31.041Z,13.05
2023-02-11T17:24:43.470Z,12.13
2023-02-11T17:32:23.054Z,11.97
2023-02-11T17:33:23.101Z,12.00
2023-02-11T17:34:22.605Z,12.02
2023-02-11T17:35:22.355Z,12.02
2023-02-11T17:37:43.401Z,11.95
2023-02-11T18:00:58.394Z,11.55
2023-02-11T18:09:42.001Z,11.54
2023-02-11T18:10:42.047Z,11.55
2023-02-11T18:11:41.992Z,11.55
2023-02-11T18:12:42.022Z,11.52
2023-02-11T18:13:41.964Z,11.52
2023-02-11T18:14:41.967Z,11.54
2023-02-11T18:15:41.988Z,11.51
2023-02-11T18:16:41.994Z,11.50
2023-02-11T18:17:41.946Z,11.46
2023-02-11T18:18:42.548Z,11.48
2023-02-11T18:19:41.919Z,11.50
2023-02-11T18:20:41.944Z,11.48
2023-02-11T19:00:40.388Z,10.99
2023-02-11T19:01:39.733Z,10.99
2023-02-11T19:03:59.198Z,10.91
2023-02-11T19:04:59.346Z,10.91
2023-02-11T19:05:59.103Z,10.90
2023-02-11T19:06:59.170Z,10.87
2023-02-11T19:07:59.086Z,10.89
2023-02-11T19:09:00.017Z,10.89
2023-02-11T19:09:59.056Z,10.87
2023-02-11T19:10:59.088Z,10.86
2023-02-11T19:39:19.602Z,10.36
2023-02-11T19:42:39.423Z,10.29
2023-02-11T19:43:39.321Z,10.28
2023-02-11T19:44:39.255Z,10.31
2023-02-11T19:45:39.179Z,10.28
2023-02-11T19:46:39.077Z,10.29
2023-02-11T19:55:40.500Z,10.25
2023-02-11T19:56:40.065Z,10.25
2023-02-11T19:59:41.388Z,10.18
2023-02-11T20:02:19.866Z,10.09
2023-02-11T20:03:19.052Z,10.06
2023-02-11T20:05:39.570Z,9.99
2023-02-11T20:06:39.845Z,10.04
2023-02-11T20:07:39.709Z,10.02
2023-02-11T20:08:38.631Z,10.04
2023-02-11T20:09:40.053Z,10.01
2023-02-11T20:10:38.742Z,10.04
2023-02-11T20:11:39.650Z,10.05
2023-02-11T20:12:39.567Z,10.06
2023-02-11T20:14:59.133Z,10.02
2023-02-11T20:17:19.364Z,9.99
2023-02-11T20:18:19.981Z,9.96
2023-02-11T20:19:19.236Z,9.99
2023-02-11T20:20:19.160Z,9.98
2023-02-11T20:21:19.818Z,9.96
2023-02-11T20:22:18.669Z,9.96
2023-02-11T20:23:18.844Z,9.96
2023-02-11T20:24:18.579Z,9.96
2023-02-11T20:25:18.836Z,9.98
2023-02-11T20:27:39.351Z,9.92
2023-02-11T20:28:39.392Z,9.92
2023-02-11T20:29:40.430Z,9.96
2023-02-11T20:30:38.741Z,9.94
2023-02-11T20:31:38.756Z,9.92
2023-02-11T20:32:38.783Z,9.91
2023-02-11T20:33:38.547Z,9.88
2023-02-11T20:34:38.564Z,9.85
2023-02-11T20:35:39.695Z,9.85
2023-02-11T20:36:38.580Z,9.84
2023-02-11T20:37:38.745Z,9.85
2023-02-11T21:32:04.066Z,9.66
2023-02-11T21:33:04.365Z,9.68
2023-02-11T21:34:04.016Z,9.66
2023-02-11T21:35:04.246Z,9.68
2023-02-11T21:36:03.916Z,9.66
2023-02-11T21:37:20.049Z,9.71
2023-02-11T21:38:03.849Z,9.64
2023-02-11T21:39:04.248Z,9.61
2023-02-11T21:40:04.593Z,9.59
2023-02-11T21:41:03.717Z,9.58
2023-02-11T21:42:03.675Z,9.55
2023-02-11T21:43:03.752Z,9.53
2023-02-11T21:44:03.651Z,9.54
2023-02-11T21:45:03.683Z,9.54
2023-02-11T21:46:03.685Z,9.53
2023-02-11T21:47:03.757Z,9.55
2023-02-11T21:48:03.841Z,9.55
2023-02-11T21:52:11.793Z,9.53
2023-02-11T21:53:11.292Z,9.45
2023-02-11T21:54:11.003Z,9.45
2023-02-11T21:55:11.469Z,9.45
2023-02-11T21:57:31.419Z,9.43
2023-02-11T21:58:31.123Z,9.44
2023-02-11T21:59:30.693Z,9.43
2023-02-11T22:00:30.323Z,9.43
2023-02-11T22:01:30.565Z,9.41
2023-02-11T22:02:30.355Z,9.43
2023-02-11T22:03:30.113Z,9.41
2023-02-11T22:04:31.274Z,9.44
2023-02-11T22:05:30.288Z,9.41
2023-02-11T22:06:30.304Z,9.41
2023-02-11T22:07:30.210Z,9.40
2023-02-11T22:08:30.404Z,9.38
2023-02-11T22:09:30.370Z,9.40
2023-02-11T22:10:30.154Z,9.40
2023-02-11T22:11:30.068Z,9.37
2023-02-11T22:12:30.168Z,9.41
2023-02-11T22:13:30.233Z,9.37
2023-02-11T22:14:32.265Z,9.37
2023-02-11T22:15:30.187Z,9.37
2023-02-11T22:16:30.229Z,9.38
2023-02-11T22:28:50.521Z,9.19
2023-02-11T22:29:50.785Z,9.16
2023-02-11T22:30:51.522Z,9.20
2023-02-11T22:31:50.838Z,9.20
2023-02-11T23:40:05.180Z,8.94
2023-02-11T23:41:05.471Z,8.94
2023-02-11T23:42:05.401Z,8.96
2023-02-11T23:43:05.017Z,8.98
2023-02-11T23:44:05.110Z,8.94
2023-02-11T23:45:07.500Z,8.98
2023-02-11T23:46:04.976Z,8.99
2023-02-11T23:47:04.942Z,8.98
2023-02-11T23:48:05.229Z,8.99
2023-02-11T23:49:04.926Z,8.99
2023-02-11T23:50:04.853Z,8.99
2023-02-11T23:51:04.842Z,9.00
2023-02-11T23:52:05.341Z,9.03
2023-02-11T23:53:05.136Z,9.00
2023-02-11T23:54:04.914Z,9.00
2023-02-11T23:55:06.506Z,8.98
2023-02-11T23:56:04.873Z,8.98
2023-02-11T23:57:05.062Z,9.00
2023-02-11T23:58:06.097Z,8.96
2023-02-11T23:59:20.785Z,8.99
